sensor_id;sensor_type;location;lat;lon;timestamp;P1;durP1;ratioP1;P2;durP2;ratioP2
19671;SDS011;9983;51.114;13.788;2023-02-28T00:02:41;6.43;;;4.32;;
19671;SDS011;9983;51.114;13.788;2023-02-28T00:07:43;7.88;;;4.35;;
19671;SDS011;9983;51.114;13.788;2023-02-28T00:12:43;3.17;;;2.88;;
19671;SDS011;9983;51.114;13.788;2023-02-28T00:17:43;3.47;;;2.75;;
19671;SDS011;9983;51.114;13.788;2023-02-28T00:22:45;2.97;;;2.67;;
19671;SDS011;9983;51.114;13.788;2023-02-28T00:27:47;6.72;;;3.60;;
19671;SDS011;9983;51.114;13.788;2023-02-28T00:32:48;7.18;;;3.90;;
19671;SDS011;9983;51.114;13.788;2023-02-28T00:37:50;5.55;;;3.35;;
19671;SDS011;9983;51.114;13.788;2023-02-28T00:42:50;5.22;;;3.58;;
19671;SDS011;9983;51.114;13.788;2023-02-28T00:47:50;4.93;;;3.90;;
19671;SDS011;9983;51.114;13.788;2023-02-28T00:52:51;5.55;;;3.63;;
19671;SDS011;9983;51.114;13.788;2023-02-28T00:57:51;6.05;;;4.00;;
19671;SDS011;9983;51.114;13.788;2023-02-28T01:02:51;7.85;;;4.13;;
19671;SDS011;9983;51.114;13.788;2023-02-28T01:07:51;5.95;;;3.95;;
19671;SDS011;9983;51.114;13.788;2023-02-28T01:12:52;5.43;;;4.32;;
19671;SDS011;9983;51.114;13.788;2023-02-28T01:17:52;5.07;;;3.53;;
19671;SDS011;9983;51.114;13.788;2023-02-28T01:22:52;6.60;;;3.90;;
19671;SDS011;9983;51.114;13.788;2023-02-28T01:27:52;4.15;;;3.50;;
19671;SDS011;9983;51.114;13.788;2023-02-28T01:32:53;7.23;;;3.80;;
19671;SDS011;9983;51.114;13.788;2023-02-28T01:37:53;6.63;;;4.80;;
19671;SDS011;9983;51.114;13.788;2023-02-28T01:42:53;6.13;;;4.47;;
19671;SDS011;9983;51.114;13.788;2023-02-28T01:47:55;6.13;;;4.20;;
19671;SDS011;9983;51.114;13.788;2023-02-28T01:52:59;7.23;;;4.53;;
19671;SDS011;9983;51.114;13.788;2023-02-28T01:58:02;5.60;;;4.22;;
19671;SDS011;9983;51.114;13.788;2023-02-28T02:03:06;4.87;;;3.90;;
19671;SDS011;9983;51.114;13.788;2023-02-28T02:08:09;5.77;;;3.73;;
19671;SDS011;9983;51.114;13.788;2023-02-28T02:13:19;6.45;;;3.88;;
19671;SDS011;9983;51.114;13.788;2023-02-28T02:18:37;6.50;;;3.57;;
19671;SDS011;9983;51.114;13.788;2023-02-28T02:23:51;5.13;;;3.50;;
19671;SDS011;9983;51.114;13.788;2023-02-28T02:34:43;5.20;;;3.63;;
19671;SDS011;9983;51.114;13.788;2023-02-28T02:40:12;6.60;;;4.07;;
19671;SDS011;9983;51.114;13.788;2023-02-28T02:45:22;6.57;;;4.33;;
19671;SDS011;9983;51.114;13.788;2023-02-28T02:50:27;6.20;;;4.33;;
19671;SDS011;9983;51.114;13.788;2023-02-28T02:55:34;7.07;;;4.20;;
19671;SDS011;9983;51.114;13.788;2023-02-28T03:00:41;5.07;;;3.60;;
19671;SDS011;9983;51.114;13.788;2023-02-28T03:05:48;5.43;;;4.23;;
19671;SDS011;9983;51.114;13.788;2023-02-28T03:10:50;7.00;;;4.03;;
19671;SDS011;9983;51.114;13.788;2023-02-28T03:16:03;6.03;;;3.90;;
19671;SDS011;9983;51.114;13.788;2023-02-28T03:26:39;5.47;;;3.83;;
19671;SDS011;9983;51.114;13.788;2023-02-28T03:31:58;7.00;;;3.90;;
19671;SDS011;9983;51.114;13.788;2023-02-28T03:37:07;5.13;;;4.03;;
19671;SDS011;9983;51.114;13.788;2023-02-28T03:42:13;6.17;;;4.77;;
19671;SDS011;9983;51.114;13.788;2023-02-28T03:52:19;6.33;;;4.37;;
19671;SDS011;9983;51.114;13.788;2023-02-28T03:57:39;6.80;;;5.07;;
19671;SDS011;9983;51.114;13.788;2023-02-28T04:02:50;5.17;;;4.37;;
19671;SDS011;9983;51.114;13.788;2023-02-28T04:07:52;6.90;;;4.47;;
19671;SDS011;9983;51.114;13.788;2023-02-28T04:12:53;7.83;;;5.50;;
19671;SDS011;9983;51.114;13.788;2023-02-28T04:17:54;7.80;;;4.68;;
19671;SDS011;9983;51.114;13.788;2023-02-28T04:22:54;7.77;;;4.93;;
19671;SDS011;9983;51.114;13.788;2023-02-28T04:27:54;7.70;;;5.10;;
19671;SDS011;9983;51.114;13.788;2023-02-28T04:32:54;7.20;;;4.80;;
19671;SDS011;9983;51.114;13.788;2023-02-28T04:37:55;6.47;;;4.97;;
19671;SDS011;9983;51.114;13.788;2023-02-28T04:42:55;9.00;;;5.10;;
19671;SDS011;9983;51.114;13.788;2023-02-28T04:47:55;8.73;;;5.00;;
19671;SDS011;9983;51.114;13.788;2023-02-28T04:52:56;7.40;;;5.03;;
19671;SDS011;9983;51.114;13.788;2023-02-28T04:57:56;11.27;;;5.00;;
19671;SDS011;9983;51.114;13.788;2023-02-28T05:02:56;6.13;;;5.20;;
19671;SDS011;9983;51.114;13.788;2023-02-28T05:07:56;10.07;;;5.13;;
19671;SDS011;9983;51.114;13.788;2023-02-28T05:12:57;10.03;;;6.07;;
19671;SDS011;9983;51.114;13.788;2023-02-28T05:17:57;9.80;;;5.33;;
19671;SDS011;9983;51.114;13.788;2023-02-28T05:22:58;7.83;;;5.53;;
19671;SDS011;9983;51.114;13.788;2023-02-28T05:27:59;6.13;;;4.73;;
19671;SDS011;9983;51.114;13.788;2023-02-28T05:32:59;8.33;;;5.23;;
19671;SDS011;9983;51.114;13.788;2023-02-28T05:37:59;8.33;;;5.07;;
19671;SDS011;9983;51.114;13.788;2023-02-28T05:43:00;8.50;;;5.20;;
19671;SDS011;9983;51.114;13.788;2023-02-28T05:48:01;10.07;;;5.00;;
19671;SDS011;9983;51.114;13.788;2023-02-28T05:53:01;6.70;;;4.60;;
19671;SDS011;9983;51.114;13.788;2023-02-28T05:58:01;8.63;;;5.50;;
19671;SDS011;9983;51.114;13.788;2023-02-28T06:03:02;7.77;;;5.03;;
19671;SDS011;9983;51.114;13.788;2023-02-28T06:08:02;8.27;;;5.03;;
19671;SDS011;9983;51.114;13.788;2023-02-28T06:13:03;8.90;;;5.93;;
19671;SDS011;9983;51.114;13.788;2023-02-28T06:18:04;7.07;;;5.00;;
19671;SDS011;9983;51.114;13.788;2023-02-28T06:23:04;9.17;;;5.17;;
19671;SDS011;9983;51.114;13.788;2023-02-28T06:28:04;9.20;;;5.37;;
19671;SDS011;9983;51.114;13.788;2023-02-28T06:33:05;8.97;;;5.77;;
19671;SDS011;9983;51.114;13.788;2023-02-28T06:38:05;10.27;;;6.60;;
19671;SDS011;9983;51.114;13.788;2023-02-28T06:43:05;9.77;;;5.87;;
19671;SDS011;9983;51.114;13.788;2023-02-28T06:48:05;10.77;;;6.53;;
19671;SDS011;9983;51.114;13.788;2023-02-28T06:53:06;7.63;;;5.30;;
19671;SDS011;9983;51.114;13.788;2023-02-28T06:58:06;10.83;;;5.63;;
19671;SDS011;9983;51.114;13.788;2023-02-28T07:03:14;10.03;;;5.43;;
19671;SDS011;9983;51.114;13.788;2023-02-28T07:08:15;9.23;;;6.10;;
19671;SDS011;9983;51.114;13.788;2023-02-28T07:13:15;11.37;;;6.80;;
19671;SDS011;9983;51.114;13.788;2023-02-28T07:18:16;10.27;;;7.00;;
19671;SDS011;9983;51.114;13.788;2023-02-28T07:23:16;9.55;;;6.68;;
19671;SDS011;9983;51.114;13.788;2023-02-28T07:28:16;12.00;;;7.50;;
19671;SDS011;9983;51.114;13.788;2023-02-28T07:33:17;8.73;;;5.77;;
19671;SDS011;9983;51.114;13.788;2023-02-28T07:38:17;9.73;;;6.20;;
19671;SDS011;9983;51.114;13.788;2023-02-28T07:43:18;9.82;;;6.72;;
19671;SDS011;9983;51.114;13.788;2023-02-28T07:48:18;11.48;;;6.95;;
19671;SDS011;9983;51.114;13.788;2023-02-28T07:53:18;7.75;;;6.25;;
19671;SDS011;9983;51.114;13.788;2023-02-28T07:58:18;11.00;;;6.22;;
19671;SDS011;9983;51.114;13.788;2023-02-28T08:03:19;8.77;;;6.47;;
19671;SDS011;9983;51.114;13.788;2023-02-28T08:08:21;9.73;;;6.80;;
19671;SDS011;9983;51.114;13.788;2023-02-28T08:13:21;9.23;;;6.43;;
19671;SDS011;9983;51.114;13.788;2023-02-28T08:18:22;8.60;;;6.00;;
19671;SDS011;9983;51.114;13.788;2023-02-28T08:23:23;11.60;;;6.40;;
19671;SDS011;9983;51.114;13.788;2023-02-28T08:28:23;8.68;;;6.57;;
19671;SDS011;9983;51.114;13.788;2023-02-28T08:33:24;8.73;;;5.28;;
19671;SDS011;9983;51.114;13.788;2023-02-28T08:38:26;8.55;;;5.40;;
19671;SDS011;9983;51.114;13.788;2023-02-28T08:43:27;10.02;;;5.45;;
19671;SDS011;9983;51.114;13.788;2023-02-28T08:48:29;9.32;;;5.45;;
19671;SDS011;9983;51.114;13.788;2023-02-28T08:53:31;7.63;;;5.60;;
19671;SDS011;9983;51.114;13.788;2023-02-28T08:58:31;8.18;;;5.50;;
19671;SDS011;9983;51.114;13.788;2023-02-28T09:03:32;9.40;;;6.28;;
19671;SDS011;9983;51.114;13.788;2023-02-28T09:08:32;6.32;;;5.50;;
19671;SDS011;9983;51.114;13.788;2023-02-28T09:13:33;9.48;;;5.15;;
19671;SDS011;9983;51.114;13.788;2023-02-28T09:18:34;7.03;;;5.78;;
19671;SDS011;9983;51.114;13.788;2023-02-28T09:23:37;11.07;;;6.07;;
19671;SDS011;9983;51.114;13.788;2023-02-28T09:28:38;7.22;;;5.18;;
19671;SDS011;9983;51.114;13.788;2023-02-28T09:33:38;8.30;;;5.47;;
19671;SDS011;9983;51.114;13.788;2023-02-28T09:38:38;6.70;;;5.07;;
19671;SDS011;9983;51.114;13.788;2023-02-28T09:43:41;10.95;;;5.75;;
19671;SDS011;9983;51.114;13.788;2023-02-28T09:48:46;7.53;;;5.35;;
19671;SDS011;9983;51.114;13.788;2023-02-28T09:53:48;6.43;;;5.18;;
19671;SDS011;9983;51.114;13.788;2023-02-28T09:58:53;10.18;;;5.43;;
19671;SDS011;9983;51.114;13.788;2023-02-28T10:03:57;7.25;;;5.28;;
19671;SDS011;9983;51.114;13.788;2023-02-28T10:09:09;6.50;;;5.13;;
19671;SDS011;9983;51.114;13.788;2023-02-28T10:14:17;5.75;;;4.72;;
19671;SDS011;9983;51.114;13.788;2023-02-28T10:19:22;6.85;;;5.32;;
19671;SDS011;9983;51.114;13.788;2023-02-28T10:24:35;8.80;;;5.68;;
19671;SDS011;9983;51.114;13.788;2023-02-28T10:29:39;6.38;;;5.30;;
19671;SDS011;9983;51.114;13.788;2023-02-28T10:34:43;8.00;;;5.30;;
19671;SDS011;9983;51.114;13.788;2023-02-28T10:39:44;10.48;;;5.40;;
19671;SDS011;9983;51.114;13.788;2023-02-28T10:44:46;6.75;;;5.70;;
19671;SDS011;9983;51.114;13.788;2023-02-28T10:49:47;7.93;;;6.25;;
19671;SDS011;9983;51.114;13.788;2023-02-28T10:54:49;6.72;;;6.03;;
19671;SDS011;9983;51.114;13.788;2023-02-28T10:59:52;11.07;;;6.72;;
19671;SDS011;9983;51.114;13.788;2023-02-28T11:05:29;9.05;;;6.00;;
19671;SDS011;9983;51.114;13.788;2023-02-28T11:10:31;8.80;;;6.47;;
19671;SDS011;9983;51.114;13.788;2023-02-28T11:15:34;10.90;;;7.13;;
19671;SDS011;9983;51.114;13.788;2023-02-28T11:20:35;6.97;;;6.28;;
19671;SDS011;9983;51.114;13.788;2023-02-28T11:25:36;10.50;;;6.75;;
19671;SDS011;9983;51.114;13.788;2023-02-28T11:30:38;9.50;;;6.47;;
19671;SDS011;9983;51.114;13.788;2023-02-28T11:35:40;8.25;;;6.30;;
19671;SDS011;9983;51.114;13.788;2023-02-28T11:40:43;8.25;;;6.75;;
19671;SDS011;9983;51.114;13.788;2023-02-28T11:51:33;8.18;;;6.80;;
19671;SDS011;9983;51.114;13.788;2023-02-28T11:57:03;9.43;;;7.40;;
19671;SDS011;9983;51.114;13.788;2023-02-28T12:02:23;9.55;;;7.25;;
19671;SDS011;9983;51.114;13.788;2023-02-28T12:07:42;10.23;;;7.72;;
19671;SDS011;9983;51.114;13.788;2023-02-28T12:18:26;10.48;;;7.07;;
19671;SDS011;9983;51.114;13.788;2023-02-28T12:29:01;10.20;;;7.38;;
19671;SDS011;9983;51.114;13.788;2023-02-28T12:34:11;10.93;;;7.78;;
19671;SDS011;9983;51.114;13.788;2023-02-28T12:45:07;10.48;;;7.30;;
19671;SDS011;9983;51.114;13.788;2023-02-28T12:50:03;13.10;;;7.75;;
19671;SDS011;9983;51.114;13.788;2023-02-28T12:55:13;10.23;;;8.07;;
19671;SDS011;9983;51.114;13.788;2023-02-28T13:00:21;11.68;;;7.82;;
19671;SDS011;9983;51.114;13.788;2023-02-28T13:05:27;11.10;;;7.72;;
19671;SDS011;9983;51.114;13.788;2023-02-28T13:10:56;10.35;;;7.78;;
19671;SDS011;9983;51.114;13.788;2023-02-28T13:16:01;12.90;;;7.90;;
19671;SDS011;9983;51.114;13.788;2023-02-28T13:21:01;12.35;;;7.45;;
19671;SDS011;9983;51.114;13.788;2023-02-28T13:26:02;10.82;;;8.15;;
19671;SDS011;9983;51.114;13.788;2023-02-28T13:31:03;10.88;;;7.90;;
19671;SDS011;9983;51.114;13.788;2023-02-28T13:36:09;9.18;;;8.20;;
19671;SDS011;9983;51.114;13.788;2023-02-28T13:41:38;9.63;;;8.00;;
19671;SDS011;9983;51.114;13.788;2023-02-28T13:51:47;9.73;;;8.30;;
19671;SDS011;9983;51.114;13.788;2023-02-28T13:56:52;10.57;;;8.38;;
19671;SDS011;9983;51.114;13.788;2023-02-28T14:02:21;10.63;;;8.63;;
19671;SDS011;9983;51.114;13.788;2023-02-28T14:07:33;11.70;;;9.13;;
19671;SDS011;9983;51.114;13.788;2023-02-28T14:12:52;10.70;;;8.93;;
19671;SDS011;9983;51.114;13.788;2023-02-28T14:17:55;11.63;;;8.68;;
19671;SDS011;9983;51.114;13.788;2023-02-28T14:33:48;10.35;;;8.07;;
19671;SDS011;9983;51.114;13.788;2023-02-28T14:39:17;9.07;;;7.85;;
19671;SDS011;9983;51.114;13.788;2023-02-28T14:44:26;10.38;;;7.78;;
19671;SDS011;9983;51.114;13.788;2023-02-28T14:49:28;11.95;;;8.90;;
19671;SDS011;9983;51.114;13.788;2023-02-28T14:54:30;11.48;;;8.32;;
19671;SDS011;9983;51.114;13.788;2023-02-28T14:59:33;10.48;;;8.68;;
19671;SDS011;9983;51.114;13.788;2023-02-28T15:04:34;12.00;;;8.23;;
19671;SDS011;9983;51.114;13.788;2023-02-28T15:09:35;10.20;;;8.55;;
19671;SDS011;9983;51.114;13.788;2023-02-28T15:14:35;10.13;;;8.30;;
19671;SDS011;9983;51.114;13.788;2023-02-28T15:19:39;8.90;;;7.50;;
19671;SDS011;9983;51.114;13.788;2023-02-28T15:24:46;9.25;;;7.47;;
19671;SDS011;9983;51.114;13.788;2023-02-28T15:29:51;10.63;;;8.23;;
19671;SDS011;9983;51.114;13.788;2023-02-28T15:34:54;10.57;;;7.30;;
19671;SDS011;9983;51.114;13.788;2023-02-28T15:39:56;10.13;;;7.50;;
19671;SDS011;9983;51.114;13.788;2023-02-28T15:44:58;9.98;;;8.13;;
19671;SDS011;9983;51.114;13.788;2023-02-28T15:50:08;10.70;;;8.25;;
19671;SDS011;9983;51.114;13.788;2023-02-28T15:55:19;11.25;;;8.00;;
19671;SDS011;9983;51.114;13.788;2023-02-28T16:00:23;10.30;;;7.65;;
19671;SDS011;9983;51.114;13.788;2023-02-28T16:05:26;12.77;;;7.65;;
19671;SDS011;9983;51.114;13.788;2023-02-28T16:10:31;10.88;;;8.27;;
19671;SDS011;9983;51.114;13.788;2023-02-28T16:15:35;11.23;;;7.80;;
19671;SDS011;9983;51.114;13.788;2023-02-28T16:20:41;10.02;;;7.65;;
19671;SDS011;9983;51.114;13.788;2023-02-28T16:25:44;9.40;;;7.38;;
19671;SDS011;9983;51.114;13.788;2023-02-28T16:30:46;9.88;;;7.35;;
19671;SDS011;9983;51.114;13.788;2023-02-28T16:35:46;8.48;;;7.18;;
19671;SDS011;9983;51.114;13.788;2023-02-28T16:40:46;10.32;;;7.28;;
19671;SDS011;9983;51.114;13.788;2023-02-28T16:45:50;11.38;;;7.03;;
19671;SDS011;9983;51.114;13.788;2023-02-28T16:50:55;7.68;;;6.22;;
19671;SDS011;9983;51.114;13.788;2023-02-28T16:55:56;9.57;;;6.37;;
19671;SDS011;9983;51.114;13.788;2023-02-28T17:00:56;11.13;;;6.17;;
19671;SDS011;9983;51.114;13.788;2023-02-28T17:05:56;10.43;;;6.28;;
19671;SDS011;9983;51.114;13.788;2023-02-28T17:10:57;11.40;;;6.75;;
19671;SDS011;9983;51.114;13.788;2023-02-28T17:15:57;9.00;;;6.18;;
19671;SDS011;9983;51.114;13.788;2023-02-28T17:20:58;11.95;;;5.97;;
19671;SDS011;9983;51.114;13.788;2023-02-28T17:25:58;10.02;;;6.20;;
19671;SDS011;9983;51.114;13.788;2023-02-28T17:30:58;8.77;;;6.33;;
19671;SDS011;9983;51.114;13.788;2023-02-28T17:35:59;10.13;;;6.55;;
19671;SDS011;9983;51.114;13.788;2023-02-28T17:40:59;10.25;;;6.55;;
19671;SDS011;9983;51.114;13.788;2023-02-28T17:45:59;7.13;;;5.90;;
19671;SDS011;9983;51.114;13.788;2023-02-28T17:51:00;7.57;;;5.90;;
19671;SDS011;9983;51.114;13.788;2023-02-28T17:56:01;10.25;;;6.45;;
19671;SDS011;9983;51.114;13.788;2023-02-28T18:01:01;8.27;;;5.97;;
19671;SDS011;9983;51.114;13.788;2023-02-28T18:06:01;9.60;;;6.30;;
19671;SDS011;9983;51.114;13.788;2023-02-28T18:11:02;8.98;;;6.03;;
19671;SDS011;9983;51.114;13.788;2023-02-28T18:16:03;11.25;;;7.10;;
19671;SDS011;9983;51.114;13.788;2023-02-28T18:21:04;8.75;;;6.60;;
19671;SDS011;9983;51.114;13.788;2023-02-28T18:26:06;8.65;;;6.50;;
19671;SDS011;9983;51.114;13.788;2023-02-28T18:31:07;9.82;;;6.75;;
19671;SDS011;9983;51.114;13.788;2023-02-28T18:36:09;7.75;;;5.97;;
19671;SDS011;9983;51.114;13.788;2023-02-28T18:41:09;10.40;;;6.55;;
19671;SDS011;9983;51.114;13.788;2023-02-28T18:46:11;8.07;;;6.07;;
19671;SDS011;9983;51.114;13.788;2023-02-28T18:56:16;8.50;;;5.72;;
19671;SDS011;9983;51.114;13.788;2023-02-28T19:01:22;9.95;;;6.90;;
19671;SDS011;9983;51.114;13.788;2023-02-28T19:06:26;11.07;;;7.30;;
19671;SDS011;9983;51.114;13.788;2023-02-28T19:11:28;11.18;;;6.75;;
19671;SDS011;9983;51.114;13.788;2023-02-28T19:16:28;10.67;;;7.40;;
19671;SDS011;9983;51.114;13.788;2023-02-28T19:21:29;9.50;;;6.97;;
19671;SDS011;9983;51.114;13.788;2023-02-28T19:26:29;8.85;;;6.70;;
19671;SDS011;9983;51.114;13.788;2023-02-28T19:31:30;13.60;;;7.77;;
19671;SDS011;9983;51.114;13.788;2023-02-28T19:36:30;11.55;;;7.40;;
19671;SDS011;9983;51.114;13.788;2023-02-28T19:41:30;11.05;;;8.55;;
19671;SDS011;9983;51.114;13.788;2023-02-28T19:46:30;12.85;;;7.97;;
19671;SDS011;9983;51.114;13.788;2023-02-28T19:51:31;12.50;;;7.65;;
19671;SDS011;9983;51.114;13.788;2023-02-28T19:56:33;12.95;;;8.07;;
19671;SDS011;9983;51.114;13.788;2023-02-28T20:01:33;9.80;;;7.57;;
19671;SDS011;9983;51.114;13.788;2023-02-28T20:06:33;13.13;;;7.63;;
19671;SDS011;9983;51.114;13.788;2023-02-28T20:11:33;11.55;;;7.65;;
19671;SDS011;9983;51.114;13.788;2023-02-28T20:16:34;12.57;;;7.88;;
19671;SDS011;9983;51.114;13.788;2023-02-28T20:21:34;10.88;;;7.38;;
19671;SDS011;9983;51.114;13.788;2023-02-28T20:26:35;8.75;;;7.10;;
19671;SDS011;9983;51.114;13.788;2023-02-28T20:31:36;12.43;;;7.57;;
19671;SDS011;9983;51.114;13.788;2023-02-28T20:36:36;12.77;;;8.47;;
19671;SDS011;9983;51.114;13.788;2023-02-28T20:41:37;13.30;;;8.50;;
19671;SDS011;9983;51.114;13.788;2023-02-28T20:46:37;13.90;;;8.83;;
19671;SDS011;9983;51.114;13.788;2023-02-28T20:51:37;13.33;;;8.27;;
19671;SDS011;9983;51.114;13.788;2023-02-28T20:56:39;12.45;;;8.45;;
19671;SDS011;9983;51.114;13.788;2023-02-28T21:01:39;13.27;;;8.68;;
19671;SDS011;9983;51.114;13.788;2023-02-28T21:06:41;14.50;;;9.63;;
19671;SDS011;9983;51.114;13.788;2023-02-28T21:11:42;14.10;;;10.27;;
19671;SDS011;9983;51.114;13.788;2023-02-28T21:16:43;12.70;;;9.07;;
19671;SDS011;9983;51.114;13.788;2023-02-28T21:21:44;13.23;;;8.27;;
19671;SDS011;9983;51.114;13.788;2023-02-28T21:26:46;11.50;;;8.37;;
19671;SDS011;9983;51.114;13.788;2023-02-28T21:31:48;12.87;;;8.73;;
19671;SDS011;9983;51.114;13.788;2023-02-28T21:36:50;11.57;;;8.50;;
19671;SDS011;9983;51.114;13.788;2023-02-28T21:41:50;12.03;;;8.73;;
19671;SDS011;9983;51.114;13.788;2023-02-28T21:46:51;13.80;;;8.33;;
19671;SDS011;9983;51.114;13.788;2023-02-28T21:51:55;11.25;;;7.82;;
19671;SDS011;9983;51.114;13.788;2023-02-28T21:56:55;11.20;;;8.03;;
19671;SDS011;9983;51.114;13.788;2023-02-28T22:01:56;11.50;;;7.83;;
19671;SDS011;9983;51.114;13.788;2023-02-28T22:06:56;10.90;;;7.67;;
19671;SDS011;9983;51.114;13.788;2023-02-28T22:11:56;13.33;;;8.30;;
19671;SDS011;9983;51.114;13.788;2023-02-28T22:16:57;10.37;;;7.53;;
19671;SDS011;9983;51.114;13.788;2023-02-28T22:21:57;11.20;;;7.70;;
19671;SDS011;9983;51.114;13.788;2023-02-28T22:26:57;11.43;;;7.80;;
19671;SDS011;9983;51.114;13.788;2023-02-28T22:31:58;11.27;;;7.43;;
19671;SDS011;9983;51.114;13.788;2023-02-28T22:36:58;22.00;;;13.10;;
19671;SDS011;9983;51.114;13.788;2023-02-28T22:41:58;11.37;;;8.50;;
19671;SDS011;9983;51.114;13.788;2023-02-28T22:46:58;12.63;;;7.90;;
19671;SDS011;9983;51.114;13.788;2023-02-28T22:51:58;9.37;;;7.30;;
19671;SDS011;9983;51.114;13.788;2023-02-28T22:56:59;14.97;;;7.87;;
19671;SDS011;9983;51.114;13.788;2023-02-28T23:01:59;12.27;;;7.97;;
19671;SDS011;9983;51.114;13.788;2023-02-28T23:06:59;11.20;;;7.93;;
19671;SDS011;9983;51.114;13.788;2023-02-28T23:11:59;11.30;;;7.77;;
19671;SDS011;9983;51.114;13.788;2023-02-28T23:17:00;12.40;;;7.90;;
19671;SDS011;9983;51.114;13.788;2023-02-28T23:22:00;14.23;;;8.23;;
19671;SDS011;9983;51.114;13.788;2023-02-28T23:27:02;14.23;;;8.77;;
19671;SDS011;9983;51.114;13.788;2023-02-28T23:32:04;13.10;;;8.97;;
19671;SDS011;9983;51.114;13.788;2023-02-28T23:37:04;14.03;;;9.33;;
19671;SDS011;9983;51.114;13.788;2023-02-28T23:42:05;13.80;;;8.80;;
19671;SDS011;9983;51.114;13.788;2023-02-28T23:47:05;13.63;;;8.47;;
19671;SDS011;9983;51.114;13.788;2023-02-28T23:52:05;12.70;;;8.43;;
19671;SDS011;9983;51.114;13.788;2023-02-28T23:57:06;13.47;;;8.77;;
